Ana Sayfa
METAR-TAF:

METAR-TAF

Havaalanları :

Deming, New Mexico, Amerika Birleşik Devletleri

Enlem: 32-15-44N, Boylam: 107-43-14W, yükseklik: 1315 m

Güncel hava durumu gözlemi

Rapor saat 10:53 UTC de 1 saat ve 4 dakika önce yapıldı.
Rüzgar batıdan 4 kt
Sıcaklık 13°C
Nem 35%
Basınç 1017 hPa
Görüş mesafesi: 16.1 km
Açık gökyüzü

METAR: KDMN 241053Z AUTO 28004KT 10SM CLR 13/M02 A3003 RMK AO2 SLP099 T01331022

Saat: 05:57 (11:57 UTC)

Tahmin

Rapor saat 11:27 UTC de 30 dakika önce yapıldı.
Ayın 24'si saat 12 UTC'den ayın 25'si saat 12 UTC'ye kadar geçerli Tahmin
Rüzgar değişken yönden 5 kt
Görüş mesafesi: 10 km
Açık gökyüzü
Ayın 24'si saat 1900 UTC'den
Rüzgar batı/güneybatıdan 9 kt
Görüş mesafesi: 10 km
Açık gökyüzü

TAF: KDMN 241127Z 2412/2512 VRB05KT P6SM SKC FM241900 25009KT P6SM SKC

4.000'den fazla havaalanı için hava durumu gözlemleri ve tahminleri (METAR ve TAF raporları).

Kullanılabilir istasyonlar harita üzerinde sarı ve kırmızı noktalarla gösterilir.

İstasyonun adını görmek için fareyi noktanın üzerinde gezdirin.

Sonrasında hava gözlem ve tahminlerini görmek için tıklayın.

Haritayı değiştirmek için: yaklaştırmak için siyah artı işaretli yeşil düğmeye ve uzaklaştırmak için de eksi işaretli düğmeye hızla tıklayın; bitişik haritalar için yeşil okları kullanın.


METAR-TAF: